Time;durP1;ratioP1;P1;durP2;ratioP2;P2;SDS_P1;SDS_P2;PMS_P1;PMS_P2;Temp;Humidity;BMP_temperature;BMP_pressure;BME280_temperature;BME280_humidity;BME280_pressure;Samples;Min_cycle;Max_cycle;Signal;HPM_P1;HPM_P2
2021/10/27 00:01:23;;;;;;;15.63;5.88;;;13.80;99.90;;;;;;5075313;28;20024;-77
2021/10/27 00:03:48;;;;;;;14.07;5.90;;;13.80;99.90;;;;;;5075162;28;20016;-77
2021/10/27 00:06:15;;;;;;;14.45;5.75;;;13.80;99.90;;;;;;5075095;28;20012;-77
2021/10/27 00:08:40;;;;;;;17.02;6.10;;;13.80;99.90;;;;;;5075168;28;20024;-77
2021/10/27 00:11:06;;;;;;;12.57;5.30;;;13.80;99.90;;;;;;5075064;28;20499;-77
2021/10/27 00:13:32;;;;;;;12.52;5.38;;;13.90;99.90;;;;;;5093181;28;20039;-77
2021/10/27 00:16:00;;;;;;;16.08;5.10;;;13.90;99.90;;;;;;5074978;28;20523;-77
2021/10/27 00:18:26;;;;;;;14.80;4.53;;;13.90;99.90;;;;;;5093002;28;20024;-77
2021/10/27 00:20:51;;;;;;;14.43;4.43;;;13.90;99.90;;;;;;5093212;28;20016;-77
2021/10/27 00:23:17;;;;;;;13.15;5.43;;;13.90;99.90;;;;;;5093121;28;20366;-77
2021/10/27 00:25:42;;;;;;;9.63;5.38;;;13.90;99.90;;;;;;5092995;28;20457;-76
2021/10/27 00:28:08;;;;;;;9.18;4.07;;;13.90;99.90;;;;;;5092978;28;20028;-77
2021/10/27 00:30:33;;;;;;;14.13;4.75;;;13.90;99.90;;;;;;5074986;28;20115;-77
2021/10/27 00:32:59;;;;;;;8.15;3.67;;;14.00;99.90;;;;;;5092961;28;20032;-76
2021/10/27 00:35:24;;;;;;;8.90;3.72;;;14.00;99.90;;;;;;5074722;28;20031;-76
2021/10/27 00:37:50;;;;;;;22.67;4.43;;;14.00;99.90;;;;;;5074714;28;20107;-76
2021/10/27 00:40:16;;;;;;;8.98;3.88;;;14.00;99.90;;;;;;5092919;28;20107;-77
2021/10/27 00:42:42;;;;;;;10.73;3.00;;;14.10;99.90;;;;;;5074872;28;20473;-77
2021/10/27 00:45:08;;;;;;;10.80;3.72;;;14.10;99.90;;;;;;5096612;28;20016;-77
2021/10/27 00:47:34;;;;;;;9.48;3.20;;;14.10;99.90;;;;;;5078546;28;20020;-75
2021/10/27 00:49:59;;;;;;;11.05;3.25;;;14.10;99.90;;;;;;5078316;28;20054;-75
2021/10/27 00:52:25;;;;;;;11.05;4.00;;;14.10;99.90;;;;;;5096503;28;20446;-75
2021/10/27 00:54:51;;;;;;;10.80;2.72;;;14.10;99.90;;;;;;5096767;28;20020;-75
2021/10/27 00:57:20;;;;;;;11.57;3.22;;;14.10;99.90;;;;;;5096572;28;20050;-75
2021/10/27 00:59:46;;;;;;;9.65;3.00;;;14.10;99.90;;;;;;5078200;28;20488;-75
2021/10/27 01:02:13;;;;;;;8.60;3.30;;;14.10;99.90;;;;;;5096330;28;20028;-75
2021/10/27 01:04:40;;;;;;;7.18;2.75;;;14.10;99.90;;;;;;5096152;28;20042;-75
2021/10/27 01:07:06;;;;;;;7.57;2.33;;;14.20;99.90;;;;;;5096518;28;20095;-75
2021/10/27 01:09:33;;;;;;;9.75;2.80;;;14.10;99.90;;;;;;5096485;28;20063;-75
2021/10/27 01:11:59;;;;;;;9.18;2.80;;;14.10;99.90;;;;;;5096402;28;20515;-77
2021/10/27 01:14:42;;;;;;;10.23;3.67;;;14.10;99.90;;;;;;5096016;28;20024;-77
2021/10/27 01:17:10;;;;;;;9.80;3.20;;;14.10;99.90;;;;;;5096115;28;20031;-75
2021/10/27 01:19:44;;;;;;;12.40;3.72;;;14.10;99.90;;;;;;5077836;28;20042;-76
2021/10/27 01:22:14;;;;;;;10.30;3.55;;;14.10;99.90;;;;;;5095879;28;20041;-75
2021/10/27 01:24:40;;;;;;;11.98;4.15;;;14.10;99.90;;;;;;5077695;28;20431;-75
2021/10/27 01:27:06;;;;;;;9.63;3.33;;;14.00;99.90;;;;;;5077791;28;20016;-76
2021/10/27 01:29:31;;;;;;;9.52;3.60;;;14.00;99.90;;;;;;5077967;28;20032;-78
2021/10/27 01:31:57;;;;;;;16.27;4.20;;;13.90;99.90;;;;;;5077954;28;20521;-78
2021/10/27 01:34:23;;;;;;;10.65;3.90;;;13.90;99.90;;;;;;5078140;28;20177;-78
2021/10/27 01:36:49;;;;;;;9.50;3.60;;;14.00;99.90;;;;;;5096195;28;20024;-74
2021/10/27 01:39:14;;;;;;;10.00;4.20;;;14.00;99.90;;;;;;5077355;28;20020;-74
2021/10/27 01:41:40;;;;;;;15.13;3.90;;;13.90;99.90;;;;;;5095609;28;20069;-74
2021/10/27 01:44:05;;;;;;;10.63;4.07;;;13.90;99.90;;;;;;5077466;28;20027;-74
2021/10/27 01:46:36;;;;;;;9.40;3.53;;;13.90;99.90;;;;;;5077315;28;20028;-74
2021/10/27 01:49:04;;;;;;;13.40;3.63;;;13.90;99.90;;;;;;5095547;28;20028;-74
2021/10/27 01:51:31;;;;;;;13.88;4.53;;;13.90;99.90;;;;;;5095621;28;20122;-74
2021/10/27 01:53:57;;;;;;;13.63;4.53;;;13.90;99.90;;;;;;5095146;28;20469;-78
2021/10/27 01:56:24;;;;;;;9.82;3.40;;;13.90;99.90;;;;;;5078206;28;20119;-79
2021/10/27 01:58:50;;;;;;;11.52;4.10;;;14.00;99.90;;;;;;5077664;28;20477;-79
2021/10/27 02:01:17;;;;;;;16.88;4.38;;;14.00;99.90;;;;;;5078263;28;20020;-79
2021/10/27 02:03:42;;;;;;;11.35;3.97;;;14.50;99.90;;;;;;5095982;28;20024;-78
2021/10/27 02:06:08;;;;;;;11.27;4.60;;;13.90;99.90;;;;;;5095643;28;20073;-79
2021/10/27 02:08:34;;;;;;;7.75;3.63;;;13.90;99.90;;;;;;5095712;28;20055;-79
2021/10/27 02:11:00;;;;;;;17.33;5.50;;;13.90;99.90;;;;;;5077025;28;20055;-79
2021/10/27 02:13:27;;;;;;;8.85;4.00;;;13.80;99.90;;;;;;5096345;28;20107;-79
2021/10/27 02:15:52;;;;;;;11.25;4.78;;;13.90;99.90;;;;;;5095488;28;20036;-79
2021/10/27 02:18:18;;;;;;;11.77;5.28;;;13.90;99.90;;;;;;5095049;28;20039;-74
2021/10/27 02:20:45;;;;;;;10.40;4.15;;;13.80;99.90;;;;;;5094973;28;20024;-74
2021/10/27 02:23:10;;;;;;;12.95;5.22;;;13.80;99.90;;;;;;5094845;28;20043;-74
2021/10/27 02:25:36;;;;;;;7.80;3.15;;;13.80;99.90;;;;;;5094978;28;20431;-74
2021/10/27 02:28:02;;;;;;;12.45;3.97;;;13.80;99.90;;;;;;5094579;28;20509;-74
2021/10/27 02:30:28;;;;;;;5.68;2.55;;;13.80;99.90;;;;;;5094600;28;20029;-74
2021/10/27 02:32:53;;;;;;;6.78;2.10;;;13.80;99.90;;;;;;5094616;28;20023;-74
2021/10/27 02:35:19;;;;;;;7.97;2.22;;;13.80;99.90;;;;;;5094892;28;20036;-74
2021/10/27 02:37:44;;;;;;;13.95;2.53;;;13.80;99.90;;;;;;5076262;28;20393;-74
2021/10/27 02:40:11;;;;;;;6.35;1.75;;;13.80;99.90;;;;;;5094738;28;20063;-74
2021/10/27 02:42:38;;;;;;;9.68;1.90;;;13.80;99.90;;;;;;5094298;28;20104;-74
2021/10/27 02:45:05;;;;;;;7.93;1.75;;;13.90;99.90;;;;;;5094228;28;20012;-74
2021/10/27 02:47:31;;;;;;;12.55;2.55;;;13.90;99.90;;;;;;5094220;28;20020;-74
2021/10/27 02:49:56;;;;;;;9.48;1.90;;;13.90;99.90;;;;;;5075974;28;20028;-74
2021/10/27 02:52:22;;;;;;;5.13;1.45;;;13.90;99.90;;;;;;5094186;28;20028;-74
2021/10/27 02:54:47;;;;;;;7.63;1.50;;;13.90;99.90;;;;;;5076379;28;20015;-78
2021/10/27 02:57:13;;;;;;;5.22;1.10;;;13.90;99.90;;;;;;5094424;28;20027;-77
2021/10/27 02:59:38;;;;;;;14.27;1.48;;;13.90;99.90;;;;;;5094071;28;20024;-77
2021/10/27 03:02:05;;;;;;;12.32;1.08;;;13.90;99.90;;;;;;5075954;28;20020;-77
2021/10/27 03:04:30;;;;;;;5.82;0.70;;;13.90;99.90;;;;;;5093951;28;20027;-78
2021/10/27 03:06:56;;;;;;;6.57;0.52;;;14.90;99.90;;;;;;5093283;28;20012;-74
2021/10/27 03:09:21;;;;;;;4.97;0.80;;;14.00;99.90;;;;;;5094503;28;20540;-74
2021/10/27 03:11:47;;;;;;;6.03;1.67;;;14.00;99.90;;;;;;5093901;28;20024;-74
2021/10/27 03:14:12;;;;;;;7.30;1.25;;;14.00;99.90;;;;;;5075663;28;20066;-73
2021/10/27 03:16:38;;;;;;;6.07;0.60;;;14.00;99.90;;;;;;5093750;28;20112;-74
2021/10/27 03:19:04;;;;;;;8.27;1.05;;;14.00;99.90;;;;;;5093967;28;20502;-74
2021/10/27 03:21:29;;;;;;;7.45;1.05;;;14.00;99.90;;;;;;5093715;28;20047;-74
2021/10/27 03:23:57;;;;;;;7.43;1.80;;;14.00;99.90;;;;;;5093845;28;20020;-74
2021/10/27 03:26:22;;;;;;;2.53;0.68;;;14.00;99.90;;;;;;5093562;28;20069;-74
2021/10/27 03:28:48;;;;;;;7.65;0.60;;;14.00;99.90;;;;;;5093968;28;20358;-74
2021/10/27 03:31:14;;;;;;;4.40;0.28;;;14.00;99.90;;;;;;5093621;28;20485;-74
2021/10/27 03:33:39;;;;;;;3.60;0.88;;;14.00;99.90;;;;;;5093501;28;20020;-74
2021/10/27 03:36:05;;;;;;;4.75;1.33;;;13.90;99.90;;;;;;5075433;28;20024;-74
2021/10/27 03:38:31;;;;;;;6.38;0.50;;;14.00;99.90;;;;;;5075385;28;20028;-74
2021/10/27 03:40:57;;;;;;;11.35;0.80;;;14.00;99.90;;;;;;5075319;28;20107;-74
2021/10/27 03:43:23;;;;;;;3.58;0.85;;;14.00;99.90;;;;;;5093432;28;20051;-74
2021/10/27 03:45:48;;;;;;;2.97;0.57;;;14.00;99.90;;;;;;5093521;28;20020;-74
2021/10/27 03:48:14;;;;;;;4.38;0.52;;;14.00;99.90;;;;;;5075283;28;20048;-74
2021/10/27 03:50:40;;;;;;;6.18;0.60;;;14.00;99.90;;;;;;5094053;28;20183;-74
2021/10/27 03:53:06;;;;;;;2.47;0.30;;;14.00;99.90;;;;;;5093340;28;20385;-74
2021/10/27 03:55:31;;;;;;;3.75;0.82;;;14.00;99.90;;;;;;5075198;28;20027;-76
2021/10/27 03:57:59;;;;;;;7.03;1.10;;;14.00;99.90;;;;;;5093509;28;20031;-77
2021/10/27 04:00:25;;;;;;;5.80;1.33;;;14.00;99.90;;;;;;5093234;28;20481;-77
2021/10/27 04:02:51;;;;;;;3.65;0.63;;;13.90;99.90;;;;;;5075137;28;20568;-77
2021/10/27 04:05:17;;;;;;;2.65;0.80;;;13.90;99.90;;;;;;5075002;28;20100;-77
2021/10/27 04:07:42;;;;;;;8.88;0.93;;;13.90;99.90;;;;;;5093211;28;20016;-77
2021/10/27 04:10:10;;;;;;;10.43;1.20;;;13.90;99.90;;;;;;5093214;28;20031;-77
2021/10/27 04:12:38;;;;;;;6.77;1.37;;;13.80;99.90;;;;;;5093264;28;20020;-77
2021/10/27 04:15:06;;;;;;;8.82;0.77;;;13.80;99.90;;;;;;5075016;28;20627;-77
2021/10/27 04:17:32;;;;;;;9.95;2.40;;;13.80;99.90;;;;;;5095151;28;20074;-77
2021/10/27 04:19:57;;;;;;;5.22;0.82;;;13.80;99.90;;;;;;5079079;28;20020;-76
2021/10/27 04:22:23;;;;;;;4.05;1.08;;;13.80;99.90;;;;;;5097075;28;20385;-76
2021/10/27 04:24:50;;;;;;;5.38;1.75;;;13.70;99.90;;;;;;5078732;28;20133;-76
2021/10/27 04:27:16;;;;;;;10.88;1.13;;;13.70;99.90;;;;;;5096929;28;20012;-77
2021/10/27 04:29:41;;;;;;;7.95;1.05;;;13.70;99.90;;;;;;5096855;28;20020;-77
2021/10/27 04:32:07;;;;;;;5.32;1.08;;;13.70;99.90;;;;;;5078677;28;20028;-77
2021/10/27 04:34:33;;;;;;;7.00;0.70;;;13.70;99.90;;;;;;5078577;28;20028;-76
2021/10/27 04:36:58;;;;;;;10.80;2.05;;;13.70;99.90;;;;;;5078649;28;20024;-77
2021/10/27 04:39:24;;;;;;;8.95;1.48;;;13.70;99.90;;;;;;5078407;28;20020;-76
2021/10/27 04:41:50;;;;;;;4.22;0.77;;;13.80;99.90;;;;;;5096758;28;20515;-77
2021/10/27 04:44:15;;;;;;;4.60;0.73;;;13.80;99.90;;;;;;5078496;28;20008;-77
2021/10/27 04:46:41;;;;;;;5.13;1.23;;;13.80;99.90;;;;;;5096651;28;20035;-77
2021/10/27 04:49:06;;;;;;;4.43;0.93;;;13.80;99.90;;;;;;5096528;28;20032;-76
2021/10/27 04:51:32;;;;;;;8.35;0.80;;;13.80;99.90;;;;;;5096613;28;20032;-76
2021/10/27 04:53:57;;;;;;;8.60;0.77;;;13.90;99.90;;;;;;5096451;28;20031;-76
2021/10/27 04:56:23;;;;;;;5.70;1.27;;;13.90;99.90;;;;;;5096337;28;20104;-77
2021/10/27 04:58:48;;;;;;;6.60;0.43;;;13.90;99.90;;;;;;5096644;28;20024;-76
2021/10/27 05:01:14;;;;;;;10.85;1.45;;;13.90;99.90;;;;;;5096699;28;20020;-77
2021/10/27 05:03:39;;;;;;;6.63;1.15;;;13.90;99.90;;;;;;5078214;28;20017;-76
2021/10/27 05:06:05;;;;;;;7.25;1.23;;;13.90;99.90;;;;;;5096370;28;20046;-76
2021/10/27 05:08:32;;;;;;;6.47;0.95;;;13.90;99.90;;;;;;5096196;28;20028;-76
2021/10/27 05:11:01;;;;;;;7.32;1.05;;;14.00;99.90;;;;;;5077966;28;20031;-76
2021/10/27 05:13:27;;;;;;;3.20;0.55;;;13.90;99.90;;;;;;5096432;28;20423;-76
2021/10/27 05:15:53;;;;;;;6.32;0.57;;;13.90;99.90;;;;;;5096284;28;20027;-76
2021/10/27 05:18:19;;;;;;;3.20;0.50;;;13.90;99.90;;;;;;5095972;28;20028;-76
2021/10/27 05:20:46;;;;;;;4.15;0.70;;;13.90;99.90;;;;;;5096282;28;20060;-76
2021/10/27 05:23:12;;;;;;;7.43;0.95;;;13.90;99.90;;;;;;5095880;28;20024;-76
2021/10/27 05:25:37;;;;;;;4.90;1.02;;;13.90;99.90;;;;;;5096081;28;20492;-76
2021/10/27 05:28:03;;;;;;;5.45;0.50;;;13.90;99.90;;;;;;5095798;28;20438;-75
2021/10/27 05:30:32;;;;;;;5.18;0.40;;;13.90;99.90;;;;;;5076905;28;20562;-76
2021/10/27 05:32:58;;;;;;;5.20;0.50;;;13.90;99.90;;;;;;5077660;28;20020;-76
2021/10/27 05:35:25;;;;;;;10.05;0.50;;;13.90;99.90;;;;;;5095779;28;20020;-76
2021/10/27 05:37:51;;;;;;;6.43;1.08;;;13.90;99.90;;;;;;5095571;28;20527;-72
2021/10/27 05:40:17;;;;;;;4.88;0.80;;;13.90;99.90;;;;;;5095635;28;20020;-77
2021/10/27 05:42:43;;;;;;;6.05;0.50;;;13.90;99.90;;;;;;5095727;28;20488;-76
2021/10/27 05:45:09;;;;;;;4.90;1.25;;;13.90;99.90;;;;;;5095464;28;20024;-76
2021/10/27 05:47:35;;;;;;;2.95;0.25;;;13.90;99.90;;;;;;5077311;28;20023;-76
2021/10/27 05:55:21;;;;;;;4.22;0.40;;;13.90;99.90;;;;;;5095451;28;20078;-77
2021/10/27 05:57:47;;;;;;;4.15;0.75;;;13.90;99.90;;;;;;5095686;28;20016;-76
2021/10/27 06:00:13;;;;;;;6.25;0.82;;;13.90;99.90;;;;;;5095251;28;20512;-77
2021/10/27 06:02:38;;;;;;;2.25;0.52;;;13.90;99.90;;;;;;5095384;28;20028;-77
2021/10/27 06:05:05;;;;;;;4.88;0.75;;;13.90;99.90;;;;;;5095296;28;20023;-78
2021/10/27 06:07:33;;;;;;;4.05;0.55;;;14.00;99.90;;;;;;5077148;28;20119;-77
2021/10/27 06:10:00;;;;;;;3.30;0.50;;;13.90;99.90;;;;;;5077189;28;20032;-78
2021/10/27 06:12:25;;;;;;;7.78;0.45;;;13.90;99.90;;;;;;5094747;28;20016;-78
2021/10/27 06:14:51;;;;;;;2.75;0.60;;;13.90;99.90;;;;;;5086566;28;20093;-75
2021/10/27 06:17:16;;;;;;;10.25;1.13;;;13.90;99.90;;;;;;5093543;28;20016;-75
2021/10/27 06:19:43;;;;;;;4.20;0.30;;;14.00;99.90;;;;;;5094672;28;20035;-75
2021/10/27 06:22:10;;;;;;;5.50;0.35;;;14.00;99.90;;;;;;5093334;28;20050;-75
2021/10/27 06:24:36;;;;;;;6.25;0.47;;;13.90;99.90;;;;;;5094901;28;20014;-76
2021/10/27 06:27:04;;;;;;;2.63;0.43;;;14.00;99.90;;;;;;5093353;28;20020;-75
2021/10/27 06:29:39;;;;;;;3.72;0.30;;;14.00;99.90;;;;;;5094728;28;20024;-76
2021/10/27 06:32:34;;;;;;;5.25;0.77;;;13.90;99.90;;;;;;5094896;28;20525;-75
2021/10/27 06:34:54;;;;;;;6.78;0.82;;;13.90;99.90;;;;;;5093941;28;20104;-76
2021/10/27 06:38:11;;;;;;;;;;;14.00;99.90;;;;;;5094871;28;20073;-75
2021/10/27 06:48:08;;;;;;;6.93;0.90;;;13.90;99.90;;;;;;5094345;28;20032;-75
2021/10/27 06:50:34;;;;;;;3.40;0.50;;;14.00;99.90;;;;;;5092837;28;20036;-75
2021/10/27 06:53:00;;;;;;;4.45;0.63;;;13.90;99.90;;;;;;5094462;28;20060;-78
2021/10/27 06:55:26;;;;;;;4.25;0.45;;;13.90;99.90;;;;;;5092906;28;20055;-78
2021/10/27 06:57:52;;;;;;;7.05;0.95;;;13.90;99.90;;;;;;5094550;28;20097;-78
2021/10/27 07:16:24;;;;;;;3.00;0.40;;;13.90;99.90;;;;;;5094083;28;20082;-78
2021/10/27 07:18:50;;;;;;;5.68;0.77;;;13.80;99.90;;;;;;5094242;28;20043;-78
2021/10/27 07:21:15;;;;;;;3.38;0.55;;;13.90;99.90;;;;;;5092555;28;20499;-75
2021/10/27 07:23:41;;;;;;;7.82;0.70;;;13.90;99.90;;;;;;5093800;28;20020;-75
2021/10/27 07:26:08;;;;;;;3.33;0.55;;;13.90;99.90;;;;;;5093567;28;20093;-77
2021/10/27 07:28:34;;;;;;;5.50;0.60;;;13.90;99.90;;;;;;5092288;28;20024;-78
2021/10/27 07:31:01;;;;;;;5.22;0.68;;;13.90;99.90;;;;;;5093598;28;20027;-77
2021/10/27 07:33:29;;;;;;;2.95;0.25;;;13.90;99.90;;;;;;5092388;28;20427;-77
2021/10/27 07:39:50;;;;;;;2.93;0.30;;;13.90;99.90;;;;;;5093552;28;20094;-77
2021/10/27 07:41:30;;;;;;;8.70;1.23;;;13.90;99.90;;;;;;5093807;28;20393;-77
2021/10/27 07:43:57;;;;;;;5.78;0.77;;;14.00;99.90;;;;;;5092052;28;20024;-77
2021/10/27 07:46:23;;;;;;;7.45;0.40;;;13.90;99.90;;;;;;5093301;28;20481;-77
2021/10/27 07:48:48;;;;;;;8.45;0.45;;;14.00;99.90;;;;;;5093210;28;20024;-77
2021/10/27 07:51:14;;;;;;;5.35;0.85;;;14.00;99.90;;;;;;5093365;28;20039;-77
2021/10/27 07:53:40;;;;;;;5.55;0.98;;;14.00;99.90;;;;;;5092857;28;20111;-78
2021/10/27 07:56:06;;;;;;;7.88;0.40;;;14.10;99.90;;;;;;5094175;28;20039;-77
2021/10/27 07:58:31;;;;;;;4.15;0.47;;;14.10;99.90;;;;;;5091854;28;20024;-77
2021/10/27 08:00:59;;;;;;;4.20;0.43;;;14.10;99.90;;;;;;5092958;28;20049;-77
2021/10/27 08:03:31;;;;;;;4.18;1.10;;;14.10;99.90;;;;;;5092010;28;20469;-77
2021/10/27 08:06:01;;;;;;;2.38;0.77;;;14.20;99.90;;;;;;5091878;28;20438;-77
2021/10/27 08:08:27;;;;;;;2.78;0.43;;;14.20;99.90;;;;;;5091807;28;20020;-77
2021/10/27 08:10:52;;;;;;;2.92;0.40;;;14.20;99.90;;;;;;5093372;28;20366;-77
2021/10/27 08:13:18;;;;;;;7.72;0.68;;;14.30;99.90;;;;;;5091757;28;20016;-77
2021/10/27 08:15:44;;;;;;;3.33;0.38;;;14.40;99.90;;;;;;5092964;28;20016;-77
2021/10/27 08:18:12;;;;;;;6.45;0.80;;;14.40;99.90;;;;;;5093032;28;20501;-77
2021/10/27 08:20:38;;;;;;;3.85;1.08;;;14.50;99.90;;;;;;5093309;28;20495;-77
2021/10/27 08:23:07;;;;;;;7.07;0.98;;;14.50;99.90;;;;;;5093306;28;20087;-77
2021/10/27 08:25:36;;;;;;;6.15;1.38;;;14.70;99.90;;;;;;5093411;28;20115;-77
2021/10/27 08:28:09;;;;;;;4.43;1.00;;;14.80;99.90;;;;;;5093585;28;20099;-77
2021/10/27 08:30:45;;;;;;;3.40;0.22;;;14.90;99.90;;;;;;5091639;28;20443;-77
2021/10/27 08:36:09;;;;;;;3.40;0.93;;;15.20;99.90;;;;;;5058760;28;20035;-77
2021/10/27 08:38:34;;;;;;;3.72;0.80;;;15.20;99.90;;;;;;5091489;28;20380;-77
2021/10/27 08:41:02;;;;;;;5.15;0.70;;;15.30;99.90;;;;;;5091642;28;20082;-77
2021/10/27 08:43:28;;;;;;;6.72;1.65;;;15.40;99.90;;;;;;5092831;28;20070;-75
2021/10/27 08:45:54;;;;;;;7.18;1.30;;;15.40;99.90;;;;;;5092867;28;20020;-75
2021/10/27 08:48:20;;;;;;;5.15;1.10;;;15.40;99.90;;;;;;5091497;28;20027;-75
2021/10/27 08:50:48;;;;;;;8.85;1.15;;;15.40;99.90;;;;;;5092921;28;20036;-75
2021/10/27 08:53:15;;;;;;;5.70;1.27;;;15.40;99.90;;;;;;5092969;28;20033;-75
2021/10/27 08:55:44;;;;;;;9.80;1.17;;;15.40;99.90;;;;;;5092620;28;20107;-75
2021/10/27 08:58:10;;;;;;;;;;;15.40;99.90;;;;;;5092961;28;20037;-75
2021/10/27 09:16:20;;;;;;;6.93;1.30;;;15.90;99.90;;;;;;5096114;28;20401;-75
2021/10/27 09:39:08;;;;;;;7.78;1.65;;;15.50;99.90;;;;;;5095942;28;20036;-76
2021/10/27 09:47:51;;;;;;;7.45;1.48;;;15.50;99.90;;;;;;5095888;28;20047;-76
2021/10/27 10:04:13;;;;;;;10.73;1.80;;;15.50;99.90;;;;;;5095872;28;20031;-76
2021/10/27 10:06:43;;;;;;;8.90;1.92;;;15.50;99.90;;;;;;5093777;28;20439;-77
2021/10/27 10:09:10;;;;;;;3.55;1.08;;;15.40;99.90;;;;;;5095128;28;20133;-77
2021/10/27 10:11:36;;;;;;;3.85;1.30;;;15.40;99.90;;;;;;5095405;28;20028;-76
2021/10/27 10:14:05;;;;;;;7.60;1.70;;;15.40;99.90;;;;;;5094989;28;20095;-76
2021/10/27 10:16:33;;;;;;;4.43;0.70;;;15.40;99.90;;;;;;5094655;28;20433;-76
2021/10/27 10:19:13;;;;;;;2.00;1.10;;;15.50;99.90;;;;;;5093589;28;20396;-76
2021/10/27 10:21:41;;;;;;;4.93;1.73;;;15.60;99.90;;;;;;5094982;28;20451;-76
2021/10/27 10:24:24;;;;;;;;;;;15.50;99.90;;;;;;5095116;28;20508;-76
2021/10/27 10:26:52;;;;;;;6.13;1.35;;;15.70;99.90;;;;;;5093427;28;20246;-76
2021/10/27 10:29:37;;;;;;;7.25;1.85;;;15.70;99.90;;;;;;5094662;28;20012;-76
2021/10/27 10:32:30;;;;;;;5.97;2.10;;;15.70;99.90;;;;;;5093622;28;20032;-76
2021/10/27 10:35:08;;;;;;;7.97;1.30;;;15.90;99.90;;;;;;5094910;28;20058;-76
2021/10/27 11:03:37;;;;;;;3.40;0.35;;;16.00;99.90;;;;;;5099174;28;20088;-74
2021/10/27 11:25:58;;;;;;;3.67;0.35;;;16.00;99.90;;;;;;5099216;28;20020;-75
2021/10/27 11:39:52;;;;;;;3.78;0.30;;;15.90;99.90;;;;;;5098835;28;20118;-75
2021/10/27 11:45:04;;;;;;;4.90;0.10;;;15.90;99.90;;;;;;5098402;28;20059;-75
2021/10/27 11:47:50;;;;;;;4.68;0.20;;;15.90;99.90;;;;;;5097972;28;20024;-75
2021/10/27 11:50:18;;;;;;;1.85;0.00;;;15.90;99.90;;;;;;5094499;28;20062;-77
2021/10/27 11:52:45;;;;;;;3.30;0.00;;;15.90;99.90;;;;;;5091975;28;20024;-78
2021/10/27 11:55:15;;;;;;;5.13;0.20;;;16.00;99.90;;;;;;5094065;28;20111;-78
2021/10/27 11:57:42;;;;;;;0.60;0.10;;;16.00;99.90;;;;;;5093471;28;20431;-78
2021/10/27 12:00:22;;;;;;;1.48;0.10;;;16.00;99.90;;;;;;5093459;28;20508;-78
2021/10/27 12:03:00;;;;;;;2.20;0.20;;;16.00;99.90;;;;;;5092194;28;20024;-78
2021/10/27 12:05:31;;;;;;;2.78;0.10;;;16.10;99.90;;;;;;5092160;28;20024;-78
2021/10/27 12:08:19;;;;;;;1.67;0.32;;;16.10;99.90;;;;;;5092034;28;20110;-78
2021/10/27 12:11:04;;;;;;;2.25;0.47;;;16.40;99.90;;;;;;5095985;28;20020;-78
2021/10/27 12:13:45;;;;;;;7.00;0.20;;;16.60;99.90;;;;;;5098267;28;20111;-78
2021/10/27 12:16:44;;;;;;;2.30;1.00;;;16.50;99.90;;;;;;5098545;28;20516;-78
2021/10/27 12:19:22;;;;;;;5.30;0.43;;;16.50;99.90;;;;;;5097871;28;20095;-78
2021/10/27 12:21:49;;;;;;;5.05;0.40;;;16.60;99.90;;;;;;5097348;28;20530;-79
2021/10/27 12:24:22;;;;;;;5.45;0.50;;;16.70;99.90;;;;;;5093827;28;20039;-78
2021/10/27 12:26:57;;;;;;;3.15;0.43;;;16.80;99.90;;;;;;5094263;28;20020;-78
2021/10/27 12:29:26;;;;;;;2.30;0.65;;;16.90;99.90;;;;;;5094281;28;20024;-79
2021/10/27 12:32:12;;;;;;;6.43;1.08;;;17.10;99.90;;;;;;5097942;28;20093;-79
2021/10/27 12:34:50;;;;;;;5.95;1.17;;;17.30;99.90;;;;;;5097059;28;20393;-79
2021/10/27 12:40:20;;;;;;;1.17;0.55;;;17.60;99.90;;;;;;5099297;28;19951;-78
2021/10/27 12:42:56;;;;;;;3.60;0.30;;;17.70;99.90;;;;;;5099324;28;20549;-78
2021/10/27 12:45:50;;;;;;;1.58;0.50;;;17.60;99.90;;;;;;5100401;28;20069;-79
2021/10/27 12:48:20;;;;;;;4.28;0.32;;;17.50;99.90;;;;;;5101435;28;20084;-78
2021/10/27 12:51:06;;;;;;;2.60;0.38;;;17.20;99.90;;;;;;5101418;28;20177;-79
2021/10/27 12:53:33;;;;;;;2.75;0.20;;;16.90;99.90;;;;;;5102370;28;20024;-78
2021/10/27 12:56:21;;;;;;;10.40;1.42;;;16.60;99.90;;;;;;5101890;28;20089;-78
2021/10/27 12:58:51;;;;;;;1.75;0.45;;;16.30;99.90;;;;;;5102315;28;20024;-78
2021/10/27 13:11:52;;;;;;;3.70;1.30;;;16.20;99.90;;;;;;5097719;28;20089;-78
2021/10/27 13:30:15;;;;;;;3.28;1.27;;;16.60;99.90;;;;;;5098361;28;20631;-79
2021/10/27 13:33:03;;;;;;;9.48;2.03;;;17.10;99.90;;;;;;5097072;28;20457;-76
2021/10/27 13:35:29;;;;;;;4.80;0.82;;;17.30;99.90;;;;;;5096298;28;20424;-75
2021/10/27 13:37:54;;;;;;;2.97;1.10;;;17.50;99.90;;;;;;5095828;28;20073;-76
2021/10/27 13:40:20;;;;;;;4.65;1.00;;;17.50;99.90;;;;;;5095594;28;20028;-76
2021/10/27 13:42:53;;;;;;;4.93;1.10;;;17.30;99.90;;;;;;5094383;28;20012;-76
2021/10/27 14:07:03;;;;;;;4.55;0.75;;;16.90;99.90;;;;;;5095924;28;20491;-77
2021/10/27 14:09:37;;;;;;;2.25;1.10;;;17.10;99.90;;;;;;5095080;28;20062;-77
2021/10/27 14:14:53;;;;;;;5.50;1.43;;;16.60;99.90;;;;;;5095405;28;20063;-77
2021/10/27 14:17:47;;;;;;;;;;;16.50;99.90;;;;;;5094156;28;20515;-77
2021/10/27 14:22:59;;;;;;;4.55;1.58;;;16.60;99.90;;;;;;5095192;28;20078;-74
2021/10/27 14:47:24;;;;;;;7.75;1.48;;;18.40;99.90;;;;;;5094815;28;20028;-75
2021/10/27 15:25:37;;;;;;;9.18;3.17;;;15.80;99.90;;;;;;5093965;28;20028;-77
2021/10/27 15:28:24;;;;;;;9.65;4.13;;;15.70;99.90;;;;;;5093132;28;20116;-77
2021/10/27 15:34:02;;;;;;;15.73;5.13;;;15.50;99.90;;;;;;5095137;28;20035;-76
2021/10/27 15:52:06;;;;;;;7.30;2.97;;;14.90;99.90;;;;;;5098664;28;20058;-77
2021/10/27 15:54:32;;;;;;;7.97;3.00;;;14.90;99.90;;;;;;5096367;28;20354;-77
2021/10/27 15:56:59;;;;;;;7.82;2.92;;;14.80;99.90;;;;;;5093277;28;20024;-77
2021/10/27 15:59:25;;;;;;;9.73;3.00;;;14.70;99.90;;;;;;5095025;28;20413;-77
2021/10/27 16:01:51;;;;;;;9.48;3.15;;;14.60;99.90;;;;;;5097231;28;20027;-75
2021/10/27 16:04:17;;;;;;;8.20;3.25;;;14.50;99.90;;;;;;5096537;28;20066;-76
2021/10/27 16:06:53;;;;;;;8.57;3.80;;;14.40;99.90;;;;;;5097356;28;20484;-76
2021/10/27 16:09:19;;;;;;;6.03;3.33;;;14.30;99.90;;;;;;5094442;28;20046;-76
2021/10/27 16:11:46;;;;;;;7.65;2.53;;;14.20;99.90;;;;;;5091794;28;20031;-76
2021/10/27 16:14:13;;;;;;;10.27;3.45;;;14.10;99.90;;;;;;5095705;28;20028;-75
2021/10/27 16:16:39;;;;;;;10.32;3.08;;;14.10;99.90;;;;;;5095989;28;20435;-75
2021/10/27 16:19:05;;;;;;;10.88;3.03;;;13.90;99.90;;;;;;5097023;28;20077;-74
2021/10/27 16:21:31;;;;;;;8.55;3.63;;;13.90;99.90;;;;;;5095771;28;20024;-74
2021/10/27 16:23:58;;;;;;;8.65;3.30;;;13.70;99.90;;;;;;5097069;28;20465;-75
2021/10/27 16:26:25;;;;;;;10.73;3.42;;;13.60;99.90;;;;;;5095995;28;20023;-75
2021/10/27 16:28:51;;;;;;;10.25;3.65;;;13.50;99.90;;;;;;5095767;28;20024;-74
2021/10/27 16:31:16;;;;;;;9.43;3.65;;;13.40;99.90;;;;;;5097007;28;20453;-75
2021/10/27 16:33:45;;;;;;;10.65;3.88;;;13.30;99.90;;;;;;5095711;28;20035;-75
2021/10/27 16:36:12;;;;;;;13.45;3.90;;;13.20;99.90;;;;;;5096831;28;20457;-75
2021/10/27 16:38:38;;;;;;;8.40;3.40;;;13.10;99.90;;;;;;5096603;28;20020;-74
2021/10/27 16:41:04;;;;;;;13.10;3.90;;;13.00;99.90;;;;;;5095508;28;20020;-75
2021/10/27 16:43:30;;;;;;;8.77;3.78;;;12.90;99.90;;;;;;5095819;28;20028;-75
2021/10/27 16:45:56;;;;;;;13.40;4.03;;;12.80;99.90;;;;;;5095355;28;20020;-75
2021/10/27 16:48:23;;;;;;;10.85;4.00;;;12.70;99.90;;;;;;5095246;28;20020;-74
2021/10/27 16:50:51;;;;;;;10.40;3.45;;;12.70;99.90;;;;;;5096365;28;20111;-74
2021/10/27 16:53:19;;;;;;;9.43;3.28;;;12.70;99.90;;;;;;5095280;28;20111;-74
2021/10/27 16:55:45;;;;;;;11.50;4.10;;;12.60;99.90;;;;;;5096486;28;20050;-75
2021/10/27 16:58:11;;;;;;;10.02;3.17;;;12.70;99.90;;;;;;5096399;28;20020;-75
2021/10/27 17:00:36;;;;;;;16.35;4.47;;;12.60;99.90;;;;;;5096668;28;20016;-75
2021/10/27 17:03:02;;;;;;;11.20;4.18;;;12.60;99.90;;;;;;5095185;28;20026;-75
2021/10/27 17:05:27;;;;;;;12.23;4.30;;;12.50;99.90;;;;;;5096289;28;20027;-75
2021/10/27 17:07:54;;;;;;;10.90;4.35;;;12.50;99.90;;;;;;5096284;28;20477;-75
2021/10/27 17:10:20;;;;;;;13.98;4.22;;;12.40;99.90;;;;;;5096267;28;20512;-75
2021/10/27 17:12:46;;;;;;;10.15;4.63;;;12.40;99.90;;;;;;5094843;28;20024;-75
2021/10/27 17:15:13;;;;;;;10.70;4.65;;;12.30;99.90;;;;;;5094789;28;20028;-75
2021/10/27 17:17:41;;;;;;;14.48;4.55;;;12.20;99.90;;;;;;5096110;28;20469;-75
2021/10/27 17:20:07;;;;;;;12.33;3.87;;;12.20;99.90;;;;;;5096250;28;20028;-75
2021/10/27 17:22:38;;;;;;;9.65;3.72;;;12.20;99.90;;;;;;5095999;28;20021;-75
2021/10/27 17:25:04;;;;;;;9.13;4.18;;;12.20;99.90;;;;;;5093542;28;20494;-75
2021/10/27 17:27:30;;;;;;;8.77;4.63;;;12.10;99.90;;;;;;5095907;28;20096;-75
2021/10/27 17:29:55;;;;;;;12.55;4.22;;;12.00;99.90;;;;;;5095916;28;20059;-75
2021/10/27 17:32:23;;;;;;;12.95;4.35;;;12.00;99.90;;;;;;5096074;28;20016;-75
2021/10/27 17:34:49;;;;;;;13.10;4.03;;;11.90;99.90;;;;;;5095755;28;20145;-75